Airfield :
LOGIN :

Register | Disclaimer

   EN    FR    IT 

 










Legend :    VFR   Marginal VFR   IFR   Intensive IFR   Very Intensive IFR
Visi :
Ceiling :
>= 8 km
>= 3000ft
5 to 8 km
1000 to 3000 ft
1500m to 5 km
500 to 1000 ft
800 to 1500m
200 to 500 ft
< 800m
< 200 ft
Symbols :   Thunderstorms  Fog  Heavy snow  Heavy precipitations  Wind > 20 kt
SIGMETs :     Misc.  Thunderstorms  Icing  Turbulence  Mountain Waves  Volcanic Ashes







- Airport Elevation : 416 ft
- IATA code : OVD


LEAS - Asturias

CURRENT METAR :
  • 161330Z VRB04KT 9999 FEW008 22/19 Q1020 NOSIG

EXPIRED METARs :
  • 161300Z 34006KT 290V040 9000 FEW001 22/19 Q1020 NOSIG
  • 161230Z VRB04KT 9999 FEW020 22/20 Q1020 NOSIG
  • 161200Z 33005KT 260V030 9999 FEW018 22/19 Q1020 NOSIG
  • 161130Z 35004KT 290V060 9999 FEW015 22/18 Q1020 NOSIG
  • 161100Z VRB03KT 9999 SCT017 22/18 Q1020 NOSIG

TAF TAF LEAS
Valid from the 16 at 09:00 until the 17 at 09:00 UTC


160800Z 1609/1709 VRB04KT 9999 FEW005 SCT015 TX22/1614Z TN17/1705Z
TEMPO 1609/1610 BKN010
PROB40
TEMPO 1611/1618 06010KT
PROB30
TEMPO 1615/1621 TSRA SCT030CB
TEMPO 1621/1708 3000 BR
PROB40
TEMPO 1621/1707 0800 BCFG BKN005
PROB40
TEMPO 1700/1706 0350 FG VV001
No reported NOTAMs for that airfield.



MET'MAP, your aeronautical weather chart ! - Copyright ORBIFLY December 2007 - Disclaimer

ORBIFLY MET'MAP TEAM :

Programming & Development : Alexandra Zaïnal
Concept & Development : Baudouin d'Aumeries
Co-Development & Prog : Marc-Olivier Méhu
Technical & hardware support : Manuel Goepfert

Contact : metmap@orbifly.com




SOURCES & CREDITS :

   NOAA